메인 페이지
METAR-TAF:

METAR-TAF

공항 :

페샤와르, 파키스탄

위도: 34-01N, 경도: 071-35E, 고도: 359m

현재 날씨관측

예보는 14분 전, 17:00시(UTC)에 발표되었습니다.
북서6kt
온도 33°C
습도 30%
기압
시정: 5000m
고도 4000ft 상공 구름 조금
연무

METAR: OPPS 251700Z 31006KT 5000 HZ FEW040 33/13 Q993

시각: 22:14 (17:14 UTC)

예보

예보는 7 시간 29분 전, 09:45시(UTC)에 발표되었습니다.
예보 대상 시간: 25일 12시부터 26일 18시까지 (UTC)
남남서10kt
시정: 4000m
고도 4000ft 상공 구름 조금
고도 10000ft 상공 구름 보통
연무
일시적
25일 12시부터 25일 15시까지 (UTC)
고도 4000ft 상공 구름 보통
고도 10000ft 상공 구름 많음
일시적
26일 09시부터 26일 12시까지 (UTC)
고도 3000ft 상공 구름 조금, 타워링 적운.
고도 4000ft 상공 구름 보통
고도 10000ft 상공 구름 많음
일시적
26일 12시부터 26일 15시까지 (UTC)
고도 3000ft 상공 구름 조금, 타워링 적운.
고도 4000ft 상공 구름 보통
고도 10000ft 상공 구름 많음
시계 내 뇌우

TAF: OPPS 250945Z 2512/2618 21010KT 4000 HZ FEW040 SCT100 TEMPO 2512/2515 SCT040 BKN100 TEMPO 2609/2612 FEW030TCU SCT040 BKN100 TEMPO 2612/2615 VCTS FEW030TCU SCT040 BKN100

4,000개 이상의 공항 관측 자료 및 예보 (METAR 및 TAF 보고).

지도상에서 검색 가능한 기상관측소가 노란 점과 빨간 점으로 표시되어 있습니다.

기상관측소 명을 보려면 표시 위로 마우스를 이동하세요.

날씨 관측과 예보를 보려면 클릭하세요.

지도 변경 : 확대하려면 엑스 표시가 있는 녹색 버튼, 축소하려면 빼기 표시가 있는 녹색 버튼, 다음 페이지의 지도를 보려면 녹색 화살표를 클릭하세요.


METAR-TAF: